createdAt,value
2022-11-13T00:01:15.118Z,7.00
2022-11-13T00:04:04.369Z,6.86
2022-11-13T00:06:57.864Z,6.88
2022-11-13T00:09:48.445Z,6.83
2022-11-13T00:12:38.584Z,6.83
2022-11-13T00:15:27.643Z,6.89
2022-11-13T00:18:16.486Z,6.94
2022-11-13T00:21:13.014Z,6.99
2022-11-13T00:24:01.970Z,7.03
2022-11-13T00:26:54.448Z,7.07
2022-11-13T00:29:45.597Z,7.09
2022-11-13T00:32:34.650Z,7.03
2022-11-13T00:35:26.334Z,6.94
2022-11-13T00:38:17.265Z,6.87
2022-11-13T00:41:05.189Z,6.92
2022-11-13T00:43:56.576Z,6.92
2022-11-13T00:46:45.011Z,6.93
2022-11-13T00:49:33.539Z,6.96
2022-11-13T00:52:25.576Z,7.00
2022-11-13T00:55:13.798Z,7.01
2022-11-13T00:58:01.759Z,7.04
2022-11-13T01:00:50.188Z,7.07
2022-11-13T01:03:39.366Z,7.09
2022-11-13T01:06:28.388Z,7.11
2022-11-13T01:09:16.703Z,7.14
2022-11-13T01:12:05.176Z,7.14
2022-11-13T01:14:52.748Z,7.14
2022-11-13T01:17:41.437Z,7.14
2022-11-13T01:20:29.597Z,7.16
2022-11-13T01:23:17.484Z,7.18
2022-11-13T01:26:12.464Z,7.18
2022-11-13T01:29:01.658Z,7.16
2022-11-13T01:31:50.197Z,7.16
2022-11-13T01:34:38.271Z,7.17
2022-11-13T01:37:26.690Z,7.16
2022-11-13T01:40:19.716Z,7.18
2022-11-13T01:43:24.852Z,7.13
2022-11-13T01:46:36.057Z,7.15
2022-11-13T01:49:43.870Z,7.10
2022-11-13T01:52:36.728Z,7.12
2022-11-13T01:55:33.216Z,7.10
2022-11-13T01:58:21.509Z,7.13
2022-11-13T02:01:09.486Z,7.15
2022-11-13T02:03:57.437Z,7.15
2022-11-13T02:06:49.281Z,7.16
2022-11-13T02:09:41.134Z,7.14
2022-11-13T02:12:38.079Z,7.13
2022-11-13T02:15:28.059Z,7.12
2022-11-13T02:18:19.178Z,7.10
2022-11-13T02:21:18.256Z,7.10
2022-11-13T02:24:16.587Z,7.10
2022-11-13T02:27:11.287Z,7.10
2022-11-13T02:29:59.427Z,7.04
2022-11-13T02:32:52.038Z,7.01
2022-11-13T02:35:40.707Z,6.95
2022-11-13T02:38:30.498Z,6.92
2022-11-13T02:41:18.588Z,6.91
2022-11-13T02:44:07.586Z,6.91
2022-11-13T02:46:55.767Z,6.91
2022-11-13T02:49:43.978Z,6.93
2022-11-13T02:52:32.508Z,6.92
2022-11-13T02:55:20.649Z,6.92
2022-11-13T02:58:11.576Z,6.93
2022-11-13T03:01:01.073Z,6.92
2022-11-13T03:03:57.391Z,6.93
2022-11-13T03:06:46.406Z,6.95
2022-11-13T03:09:34.840Z,6.97
2022-11-13T03:12:23.336Z,6.98
2022-11-13T03:15:12.359Z,6.97
2022-11-13T03:18:03.886Z,6.97
2022-11-13T03:20:53.807Z,6.90
2022-11-13T03:23:44.567Z,6.85
2022-11-13T03:26:32.556Z,6.85
2022-11-13T03:29:20.444Z,6.87
2022-11-13T03:32:08.866Z,6.90
2022-11-13T03:34:56.739Z,6.89
2022-11-13T03:37:45.019Z,6.87
2022-11-13T03:40:33.184Z,6.89
2022-11-13T03:43:21.124Z,6.88
2022-11-13T03:46:09.245Z,6.85
2022-11-13T03:48:57.224Z,6.78
2022-11-13T03:51:45.804Z,6.77
2022-11-13T03:54:34.463Z,6.80
2022-11-13T03:57:22.525Z,6.83
2022-11-13T04:00:13.566Z,6.83
2022-11-13T04:03:01.702Z,6.80
2022-11-13T04:05:50.695Z,6.79
2022-11-13T04:08:40.805Z,6.74
2022-11-13T04:11:28.722Z,6.71
2022-11-13T04:14:19.706Z,6.73
2022-11-13T04:17:07.503Z,6.73
2022-11-13T04:19:56.135Z,6.68
2022-11-13T04:22:44.455Z,6.64
2022-11-13T04:25:32.434Z,6.69
2022-11-13T04:28:20.797Z,6.72
2022-11-13T04:31:09.945Z,6.69
2022-11-13T04:33:57.924Z,6.69
2022-11-13T04:36:46.315Z,6.69
2022-11-13T04:39:35.102Z,6.71
2022-11-13T04:42:40.346Z,6.69
2022-11-13T04:45:28.783Z,6.67
2022-11-13T04:48:17.165Z,6.57
2022-11-13T04:51:07.716Z,6.56
2022-11-13T04:53:55.470Z,6.57
2022-11-13T04:56:43.677Z,6.57
2022-11-13T04:59:31.622Z,6.51
2022-11-13T05:02:19.756Z,6.52
2022-11-13T05:05:10.832Z,6.54
2022-11-13T05:07:58.622Z,6.57
2022-11-13T05:10:46.915Z,6.59
2022-11-13T05:13:36.680Z,6.59
2022-11-13T05:16:24.714Z,6.55
2022-11-13T05:19:12.763Z,6.55
2022-11-13T05:22:01.302Z,6.58
2022-11-13T05:24:49.406Z,6.57
2022-11-13T05:27:37.875Z,6.59
2022-11-13T05:30:26.231Z,6.54
2022-11-13T05:33:15.092Z,6.55
2022-11-13T05:36:04.692Z,6.55
2022-11-13T05:38:53.633Z,6.58
2022-11-13T05:41:41.634Z,6.59
2022-11-13T05:44:29.373Z,6.52
2022-11-13T05:47:19.475Z,6.42
2022-11-13T05:50:11.231Z,6.41
2022-11-13T05:53:02.084Z,6.24
2022-11-13T05:55:50.144Z,6.25
2022-11-13T05:58:38.930Z,6.28
2022-11-13T06:01:28.928Z,6.33
2022-11-13T06:04:16.662Z,6.31
2022-11-13T06:07:04.815Z,6.35
2022-11-13T06:09:52.942Z,6.37
2022-11-13T06:12:43.094Z,6.28
2022-11-13T06:15:31.274Z,6.34
2022-11-13T06:18:26.531Z,6.37
2022-11-13T06:21:17.045Z,6.32
2022-11-13T06:24:06.722Z,6.30
2022-11-13T06:26:54.762Z,6.28
2022-11-13T06:29:43.183Z,6.29
2022-11-13T06:32:31.571Z,6.34
2022-11-13T06:35:19.712Z,6.37
2022-11-13T06:38:08.072Z,6.39
2022-11-13T06:40:56.774Z,6.38
2022-11-13T06:43:45.032Z,6.40
2022-11-13T06:46:32.894Z,6.36
2022-11-13T06:49:21.403Z,6.41
2022-11-13T06:52:09.553Z,6.44
2022-11-13T06:54:57.252Z,6.51
2022-11-13T06:57:45.094Z,6.49
2022-11-13T07:00:36.697Z,6.48
2022-11-13T07:03:27.486Z,6.53
2022-11-13T07:06:21.313Z,6.57
2022-11-13T07:09:09.567Z,6.51
2022-11-13T07:11:57.835Z,6.53
2022-11-13T07:14:47.733Z,6.46
2022-11-13T07:17:35.846Z,6.30
2022-11-13T07:20:27.797Z,6.42
2022-11-13T07:23:15.736Z,6.47
2022-11-13T07:26:03.833Z,6.43
2022-11-13T07:29:12.974Z,6.44
2022-11-13T07:32:01.443Z,6.49
2022-11-13T07:34:49.396Z,6.53
2022-11-13T07:37:37.584Z,6.46
2022-11-13T07:40:27.563Z,6.25
2022-11-13T07:43:16.355Z,6.28
2022-11-13T07:46:04.137Z,6.29
2022-11-13T07:48:55.644Z,6.32
2022-11-13T07:51:43.911Z,6.19
2022-11-13T07:54:31.956Z,6.18
2022-11-13T07:57:22.516Z,6.34
2022-11-13T08:00:12.350Z,6.42
2022-11-13T08:03:05.744Z,6.45
2022-11-13T08:05:59.866Z,6.29
2022-11-13T08:08:48.014Z,6.17
2022-11-13T08:11:36.666Z,6.15
2022-11-13T08:14:24.714Z,6.33
2022-11-13T08:17:17.286Z,6.41
2022-11-13T08:20:11.924Z,6.36
2022-11-13T08:23:06.296Z,6.42
2022-11-13T08:25:55.471Z,6.37
2022-11-13T08:28:46.456Z,6.41
2022-11-13T08:31:34.543Z,6.54
2022-11-13T08:34:22.600Z,6.63
2022-11-13T08:37:11.067Z,6.58
2022-11-13T08:40:11.488Z,6.66
2022-11-13T08:43:02.446Z,6.72
2022-11-13T08:45:50.870Z,6.78
2022-11-13T08:48:41.625Z,6.76
2022-11-13T08:51:29.807Z,6.88
2022-11-13T08:54:21.078Z,6.94
2022-11-13T08:57:09.223Z,7.07
2022-11-13T09:00:01.285Z,7.16
2022-11-13T09:02:53.646Z,7.18
2022-11-13T09:05:41.761Z,7.21
2022-11-13T09:08:32.336Z,7.02
2022-11-13T09:11:20.294Z,6.91
2022-11-13T09:14:09.114Z,6.96
2022-11-13T09:16:58.195Z,6.99
2022-11-13T09:19:47.089Z,7.10
2022-11-13T09:22:36.134Z,6.98
2022-11-13T09:25:25.444Z,6.97
2022-11-13T09:28:13.764Z,7.00
2022-11-13T09:31:05.816Z,7.07
2022-11-13T09:33:54.895Z,7.04
2022-11-13T09:36:43.096Z,7.09
2022-11-13T09:39:31.029Z,6.92
2022-11-13T09:42:23.837Z,6.97
2022-11-13T09:45:15.973Z,7.04
2022-11-13T09:48:17.575Z,6.91
2022-11-13T09:51:13.101Z,6.96
2022-11-13T09:54:05.479Z,7.07
2022-11-13T09:56:57.990Z,7.23
2022-11-13T09:59:52.389Z,7.02
2022-11-13T10:02:50.572Z,7.11
2022-11-13T10:05:45.526Z,7.00
2022-11-13T10:08:52.744Z,7.05
2022-11-13T10:11:44.454Z,6.98
2022-11-13T10:14:38.667Z,6.96
2022-11-13T10:17:33.983Z,6.89
2022-11-13T10:20:25.738Z,6.91
2022-11-13T10:23:19.434Z,7.03
2022-11-13T10:26:15.696Z,7.13
2022-11-13T10:29:11.788Z,7.09
2022-11-13T10:32:11.185Z,7.15
2022-11-13T10:35:18.146Z,7.12
2022-11-13T10:38:12.859Z,7.12
2022-11-13T10:41:12.707Z,7.12
2022-11-13T10:44:19.608Z,7.01
2022-11-13T10:47:26.549Z,6.95
2022-11-13T10:50:25.653Z,6.79
2022-11-13T10:53:18.917Z,6.83
2022-11-13T10:56:22.044Z,6.82
2022-11-13T10:59:18.889Z,6.80
2022-11-13T11:02:21.495Z,6.65
2022-11-13T11:05:19.596Z,6.69
2022-11-13T11:08:11.129Z,6.60
2022-11-13T11:11:19.687Z,6.73
2022-11-13T11:14:20.045Z,6.86
2022-11-13T11:17:11.285Z,6.85
2022-11-13T11:20:03.046Z,6.71
2022-11-13T11:22:54.435Z,6.78
2022-11-13T11:25:48.830Z,6.76
2022-11-13T11:28:43.406Z,6.65
2022-11-13T11:31:37.164Z,6.65
2022-11-13T11:34:32.147Z,6.66
2022-11-13T11:37:22.795Z,6.71
2022-11-13T11:40:20.904Z,6.67
2022-11-13T11:43:18.265Z,6.72
2022-11-13T11:46:10.545Z,6.76
2022-11-13T11:49:01.608Z,6.71
2022-11-13T11:51:58.745Z,6.74
2022-11-13T11:55:01.993Z,6.77
2022-11-13T11:57:58.325Z,6.74
2022-11-13T12:00:52.947Z,6.82
2022-11-13T12:04:01.426Z,6.88
2022-11-13T12:07:02.184Z,6.80
2022-11-13T12:10:00.497Z,6.71
2022-11-13T12:12:59.045Z,6.78
2022-11-13T12:15:52.452Z,6.82
2022-11-13T12:18:55.256Z,6.93
2022-11-13T12:21:52.036Z,6.94
2022-11-13T12:24:57.774Z,7.00
2022-11-13T12:27:53.496Z,6.97
2022-11-13T12:30:49.996Z,6.97
2022-11-13T12:33:47.675Z,6.80
2022-11-13T12:36:36.167Z,6.87
2022-11-13T12:39:40.279Z,6.89
2022-11-13T12:42:35.434Z,6.85
2022-11-13T12:45:34.302Z,6.81
2022-11-13T12:48:32.552Z,6.84
2022-11-13T12:51:21.007Z,6.91
2022-11-13T12:54:14.595Z,6.90
2022-11-13T12:57:18.150Z,6.91
2022-11-13T13:00:27.659Z,6.93
2022-11-13T13:03:42.625Z,6.90
2022-11-13T13:06:49.972Z,6.78
2022-11-13T13:09:53.769Z,6.87
2022-11-13T13:12:53.744Z,6.89
2022-11-13T13:15:46.696Z,6.96
2022-11-13T13:18:37.686Z,6.99
2022-11-13T13:21:25.813Z,7.08
2022-11-13T13:24:30.325Z,7.07
2022-11-13T13:27:26.192Z,6.98
2022-11-13T13:30:19.733Z,6.88
2022-11-13T13:33:20.976Z,6.98
2022-11-13T13:36:21.043Z,6.92
2022-11-13T13:39:20.655Z,6.90
2022-11-13T13:42:22.787Z,6.76
2022-11-13T13:45:27.242Z,6.78
2022-11-13T13:48:19.519Z,6.76
2022-11-13T13:51:17.586Z,6.71
2022-11-13T13:54:09.174Z,6.81
2022-11-13T13:56:58.533Z,6.84
2022-11-13T13:59:46.727Z,6.85
2022-11-13T14:02:45.004Z,6.77
2022-11-13T14:05:36.074Z,6.76
2022-11-13T14:08:26.853Z,6.77
2022-11-13T14:11:20.871Z,6.75
2022-11-13T14:14:10.813Z,6.78
2022-11-13T14:17:01.222Z,6.78
2022-11-13T14:19:52.267Z,6.73
2022-11-13T14:22:41.937Z,6.72
2022-11-13T14:25:30.457Z,6.76
2022-11-13T14:28:20.566Z,6.74
2022-11-13T14:31:14.543Z,6.79
2022-11-13T14:34:11.225Z,6.80
2022-11-13T14:37:12.531Z,6.66
2022-11-13T14:40:03.033Z,6.59
2022-11-13T14:42:57.526Z,6.42
2022-11-13T14:45:55.376Z,6.43
2022-11-13T14:48:54.511Z,6.40
2022-11-13T14:51:42.828Z,6.27
2022-11-13T14:57:52.103Z,6.12
2022-11-13T15:00:40.254Z,6.18
2022-11-13T15:03:29.579Z,6.16
2022-11-13T15:06:20.246Z,6.20
2022-11-13T15:09:13.359Z,6.21
2022-11-13T15:12:01.474Z,6.26
2022-11-13T15:14:49.457Z,6.24
2022-11-13T15:17:38.274Z,6.26
2022-11-13T15:20:28.805Z,6.24
2022-11-13T15:23:17.507Z,6.19
2022-11-13T15:26:05.983Z,6.18
2022-11-13T15:28:54.719Z,6.10
2022-11-13T15:31:44.246Z,6.15
2022-11-13T15:34:32.644Z,6.10
2022-11-13T15:37:20.785Z,6.12
2022-11-13T15:40:10.297Z,5.99
2022-11-13T15:43:01.017Z,5.90
2022-11-13T15:45:49.207Z,5.93
2022-11-13T15:48:37.413Z,5.99
2022-11-13T15:51:30.387Z,5.95
2022-11-13T15:54:25.056Z,5.90
2022-11-13T15:57:18.537Z,5.87
2022-11-13T16:00:15.971Z,5.86
2022-11-13T16:03:10.864Z,5.81
2022-11-13T16:05:59.606Z,5.85
2022-11-13T16:08:48.373Z,5.83
2022-11-13T16:11:36.766Z,5.77
2022-11-13T16:14:25.550Z,5.73
2022-11-13T16:17:16.257Z,5.77
2022-11-13T16:20:07.552Z,5.80
2022-11-13T16:22:58.543Z,5.78
2022-11-13T16:25:49.313Z,5.70
2022-11-13T16:29:07.379Z,5.73
2022-11-13T16:31:50.954Z,5.64
2022-11-13T16:34:39.325Z,5.62
2022-11-13T16:37:27.933Z,5.69
2022-11-13T16:40:22.265Z,5.68
2022-11-13T16:43:13.343Z,5.67
2022-11-13T16:46:05.291Z,5.58
2022-11-13T16:48:54.664Z,5.56
2022-11-13T16:51:42.833Z,5.59
2022-11-13T16:54:30.853Z,5.61
2022-11-13T16:57:19.629Z,5.61
2022-11-13T17:00:11.667Z,5.64
2022-11-13T17:02:59.871Z,5.64
2022-11-13T17:05:52.566Z,5.73
2022-11-13T17:08:40.992Z,5.70
2022-11-13T17:11:30.229Z,5.70
2022-11-13T17:14:18.537Z,5.72
2022-11-13T17:17:11.053Z,5.76
2022-11-13T17:20:02.074Z,5.77
2022-11-13T17:22:52.132Z,5.68
2022-11-13T17:25:39.822Z,5.57
2022-11-13T17:28:28.151Z,5.54
2022-11-13T17:31:16.246Z,5.59
2022-11-13T17:34:04.686Z,5.56
2022-11-13T17:36:54.274Z,5.60
2022-11-13T17:39:42.065Z,5.50
2022-11-13T17:42:29.924Z,5.44
2022-11-13T17:45:18.655Z,5.44
2022-11-13T17:48:07.272Z,5.46
2022-11-13T17:50:59.529Z,5.55
2022-11-13T17:53:47.676Z,5.57
2022-11-13T17:56:38.748Z,5.58
2022-11-13T17:59:28.684Z,5.60
2022-11-13T18:02:18.486Z,5.57
2022-11-13T18:05:10.494Z,5.46
2022-11-13T18:07:58.987Z,5.49
2022-11-13T18:10:46.846Z,5.42
2022-11-13T18:13:34.995Z,5.28
2022-11-13T18:16:25.678Z,5.16
2022-11-13T18:19:14.284Z,5.18
2022-11-13T18:22:02.784Z,5.25
2022-11-13T18:24:56.875Z,5.24
2022-11-13T18:27:50.520Z,5.28
2022-11-13T18:30:46.107Z,5.26
2022-11-13T18:33:34.804Z,5.30
2022-11-13T18:36:32.378Z,5.24
2022-11-13T18:39:21.407Z,5.21
2022-11-13T18:42:13.173Z,5.21
2022-11-13T18:45:08.793Z,5.31
2022-11-13T18:48:04.116Z,5.24
2022-11-13T18:51:00.171Z,5.09
2022-11-13T18:53:53.775Z,5.10
2022-11-13T18:56:47.466Z,5.18
2022-11-13T18:59:42.960Z,5.21
2022-11-13T19:02:44.008Z,5.26
2022-11-13T19:05:38.556Z,5.22
2022-11-13T19:08:29.344Z,5.28
2022-11-13T19:11:23.748Z,5.24
2022-11-13T19:14:20.057Z,5.25
2022-11-13T19:17:20.590Z,5.27
2022-11-13T19:20:28.899Z,5.26
2022-11-13T19:23:59.417Z,5.20
2022-11-13T19:27:04.958Z,5.21
2022-11-13T19:30:15.622Z,5.19
2022-11-13T19:33:16.942Z,5.12
2022-11-13T19:36:15.407Z,5.17
2022-11-13T19:39:22.052Z,5.18
2022-11-13T19:42:31.440Z,5.12
2022-11-13T19:46:01.525Z,5.15
2022-11-13T19:49:05.021Z,5.18
2022-11-13T19:52:06.613Z,5.24
2022-11-13T19:54:56.807Z,5.24
2022-11-13T19:57:46.315Z,5.18
2022-11-13T20:00:52.606Z,5.11
2022-11-13T20:03:41.845Z,5.11
2022-11-13T20:06:32.846Z,5.13
2022-11-13T20:09:21.377Z,5.13
2022-11-13T20:12:09.894Z,5.07
2022-11-13T20:14:57.990Z,5.12
2022-11-13T20:17:46.207Z,5.17
2022-11-13T20:20:34.658Z,5.14
2022-11-13T20:23:28.834Z,5.13
2022-11-13T20:26:16.805Z,5.15
2022-11-13T20:29:04.917Z,5.14
2022-11-13T20:31:53.135Z,5.07
2022-11-13T20:34:41.359Z,5.13
2022-11-13T20:37:29.324Z,5.18
2022-11-13T20:40:19.186Z,5.20
2022-11-13T20:43:09.504Z,5.14
2022-11-13T20:46:04.205Z,5.16
2022-11-13T20:48:55.702Z,5.16
2022-11-13T20:51:44.096Z,5.13
2022-11-13T20:54:32.357Z,5.12
2022-11-13T20:57:20.884Z,5.08
2022-11-13T21:00:11.624Z,5.14
2022-11-13T21:03:00.044Z,5.02
2022-11-13T21:05:48.197Z,5.01
2022-11-13T21:08:38.002Z,4.99
2022-11-13T21:11:29.705Z,5.04
2022-11-13T21:14:17.705Z,5.04
2022-11-13T21:17:06.243Z,5.12
2022-11-13T21:19:57.511Z,5.11
2022-11-13T21:22:47.616Z,5.11
2022-11-13T21:25:38.647Z,5.07
2022-11-13T21:28:32.409Z,5.03
2022-11-13T21:31:22.388Z,5.09
2022-11-13T21:34:13.648Z,5.15
2022-11-13T21:37:01.882Z,5.10
2022-11-13T21:39:50.117Z,5.01
2022-11-13T21:42:38.467Z,4.93
2022-11-13T21:45:26.360Z,4.90
2022-11-13T21:48:15.566Z,4.90
2022-11-13T21:51:03.286Z,4.93
2022-11-13T21:53:51.555Z,4.99
2022-11-13T21:56:41.447Z,5.02
2022-11-13T21:59:30.647Z,5.02
2022-11-13T22:02:18.576Z,5.04
2022-11-13T22:05:07.988Z,5.09
2022-11-13T22:07:56.150Z,5.13
2022-11-13T22:10:43.957Z,5.05
2022-11-13T22:13:32.511Z,5.01
2022-11-13T22:16:21.217Z,5.01
2022-11-13T22:19:12.509Z,4.92
2022-11-13T22:22:00.345Z,4.80
2022-11-13T22:24:48.097Z,4.76
2022-11-13T22:27:40.072Z,4.77
2022-11-13T22:30:28.031Z,4.80
2022-11-13T22:33:16.305Z,4.79
2022-11-13T22:36:06.896Z,4.73
2022-11-13T22:38:54.953Z,4.74
2022-11-13T22:41:42.875Z,4.80
2022-11-13T22:44:51.363Z,4.87
2022-11-13T22:47:38.489Z,4.88
2022-11-13T22:50:26.462Z,4.90
2022-11-13T22:53:14.371Z,4.95
2022-11-13T22:56:04.306Z,4.90
2022-11-13T22:58:54.068Z,4.90
2022-11-13T23:01:43.009Z,4.92
2022-11-13T23:04:30.887Z,4.88
2022-11-13T23:07:19.195Z,4.90
2022-11-13T23:10:09.976Z,4.88
2022-11-13T23:12:58.143Z,4.90
2022-11-13T23:15:46.166Z,4.92
2022-11-13T23:18:34.646Z,4.92
2022-11-13T23:21:24.786Z,4.94
2022-11-13T23:24:14.845Z,4.99
2022-11-13T23:27:03.112Z,5.00
2022-11-13T23:29:50.623Z,4.94
2022-11-13T23:32:38.856Z,4.84
2022-11-13T23:35:27.015Z,4.80
2022-11-13T23:38:14.993Z,4.76
2022-11-13T23:41:03.267Z,4.69
2022-11-13T23:46:59.294Z,4.76
2022-11-13T23:49:47.114Z,4.70
2022-11-13T23:52:35.560Z,4.77
2022-11-13T23:55:23.405Z,4.81
2022-11-13T23:58:13.836Z,4.86
